Terminal Aerodrome Forecast
Issued by NWS Cleveland, OH

Home | Current Version | Previous Version | Graphics & Text | Print | Product List | Glossary On
Versions: 1 2 3 4 5 6 7 8 9 10 11 12 13 14 15 16 17 18 19 20 21 22 23
381
FTUS41 KCLE 171137
TAFERI
TAF
KERI 171137Z 1712/1812 15012KT 6SM -SHRA BR BKN035
      TEMPO 1713/1717 4SM -SHRA BR BKN020
     FM171700 16014G22KT 6SM -SHRA BR SCT008 OVC015
     FM172200 25012G20KT 6SM BR VCSH OVC008=

USA.gov is the U.S. government's official web portal to all federal, state and local government web resources and services.